sensor_id;sensor_type;location;lat;lon;timestamp;pressure;altitude;pressure_sealevel;temperature;humidity
13033;BME280;6583;42.632;23.298;2023-02-28T05:59:51;71461.25;;;-146.40;95.87
13033;BME280;6583;42.632;23.298;2023-02-28T06:02:18;71465.28;;;-146.40;95.02
13033;BME280;6583;42.632;23.298;2023-02-28T06:04:44;71465.28;;;-146.40;95.18
13033;BME280;6583;42.632;23.298;2023-02-28T06:07:11;71459.22;;;-146.40;95.88
13033;BME280;6583;42.632;23.298;2023-02-28T06:09:38;71453.16;;;-146.40;95.70
13033;BME280;6583;42.632;23.298;2023-02-28T06:12:06;71445.06;;;-146.40;95.49
13033;BME280;6583;42.632;23.298;2023-02-28T06:14:35;71457.19;;;-146.40;95.17
13033;BME280;6583;42.632;23.298;2023-02-28T06:17:03;71441.00;;;-146.40;94.81
13033;BME280;6583;42.632;23.298;2023-02-28T06:19:30;71441.00;;;-146.40;94.40
13033;BME280;6583;42.632;23.298;2023-02-28T06:21:57;71432.91;;;-146.40;94.13
13033;BME280;6583;42.632;23.298;2023-02-28T06:24:26;71430.91;;;-146.40;94.33
13033;BME280;6583;42.632;23.298;2023-02-28T06:26:54;71426.84;;;-146.40;94.66
13033;BME280;6583;42.632;23.298;2023-02-28T06:29:21;71445.06;;;-146.40;94.82
13033;BME280;6583;42.632;23.298;2023-02-28T06:31:48;71443.03;;;-146.40;94.72
13033;BME280;6583;42.632;23.298;2023-02-28T06:34:16;71441.00;;;-146.40;95.21
13033;BME280;6583;42.632;23.298;2023-02-28T06:36:43;71430.91;;;-146.40;94.99
13033;BME280;6583;42.632;23.298;2023-02-28T06:39:10;71447.09;;;-146.40;95.32
13033;BME280;6583;42.632;23.298;2023-02-28T06:41:36;71459.22;;;-146.40;95.53
13033;BME280;6583;42.632;23.298;2023-02-28T06:44:08;71453.16;;;-146.40;96.03
13033;BME280;6583;42.632;23.298;2023-02-28T06:46:38;71461.25;;;-146.40;96.81
13033;BME280;6583;42.632;23.298;2023-02-28T06:49:05;71453.16;;;-146.40;96.82
13033;BME280;6583;42.632;23.298;2023-02-28T06:51:35;71461.25;;;-146.40;97.08
13033;BME280;6583;42.632;23.298;2023-02-28T06:54:05;71451.13;;;-146.40;97.64
13033;BME280;6583;42.632;23.298;2023-02-28T06:56:34;71461.25;;;-146.40;97.63
13033;BME280;6583;42.632;23.298;2023-02-28T06:59:03;71467.31;;;-146.40;97.56
13033;BME280;6583;42.632;23.298;2023-02-28T07:01:30;71477.44;;;-146.40;97.71
13033;BME280;6583;42.632;23.298;2023-02-28T07:03:58;71493.63;;;-146.40;98.85
13033;BME280;6583;42.632;23.298;2023-02-28T07:06:25;71479.47;;;-146.40;99.48
13033;BME280;6583;42.632;23.298;2023-02-28T07:08:53;71473.41;;;-146.40;99.88
13033;BME280;6583;42.632;23.298;2023-02-28T07:11:21;71473.41;;;-146.40;100.00
13033;BME280;6583;42.632;23.298;2023-02-28T07:13:50;71477.44;;;-146.40;100.00
13033;BME280;6583;42.632;23.298;2023-02-28T07:16:17;71493.63;;;-146.40;100.00
13033;BME280;6583;42.632;23.298;2023-02-28T07:18:44;71481.50;;;-146.40;100.00
13033;BME280;6583;42.632;23.298;2023-02-28T07:21:11;71487.56;;;-146.40;100.00
13033;BME280;6583;42.632;23.298;2023-02-28T07:23:38;71481.50;;;-146.40;100.00
13033;BME280;6583;42.632;23.298;2023-02-28T07:26:07;71473.41;;;-146.40;100.00
13033;BME280;6583;42.632;23.298;2023-02-28T07:28:38;71465.28;;;-146.40;100.00
13033;BME280;6583;42.632;23.298;2023-02-28T07:31:05;71473.41;;;-146.40;100.00
13033;BME280;6583;42.632;23.298;2023-02-28T07:33:32;71463.28;;;-146.40;100.00
13033;BME280;6583;42.632;23.298;2023-02-28T07:36:03;71453.16;;;-146.40;100.00
13033;BME280;6583;42.632;23.298;2023-02-28T07:38:31;71441.00;;;-146.40;100.00
13033;BME280;6583;42.632;23.298;2023-02-28T07:40:59;71430.91;;;-146.40;100.00
13033;BME280;6583;42.632;23.298;2023-02-28T07:43:27;71422.81;;;-146.40;100.00
13033;BME280;6583;42.632;23.298;2023-02-28T07:45:54;71408.63;;;-146.40;100.00
13033;BME280;6583;42.632;23.298;2023-02-28T07:48:21;71400.53;;;-146.40;100.00
13033;BME280;6583;42.632;23.298;2023-02-28T07:50:54;71400.53;;;-146.40;100.00
13033;BME280;6583;42.632;23.298;2023-02-28T07:53:21;71416.72;;;-146.40;100.00
13033;BME280;6583;42.632;23.298;2023-02-28T07:55:48;71416.72;;;-146.40;100.00
13033;BME280;6583;42.632;23.298;2023-02-28T07:58:14;71416.72;;;-146.40;100.00
13033;BME280;6583;42.632;23.298;2023-02-28T08:00:42;71432.91;;;-146.40;100.00
13033;BME280;6583;42.632;23.298;2023-02-28T08:03:11;71422.81;;;-146.40;100.00
13033;BME280;6583;42.632;23.298;2023-02-28T08:05:38;71416.72;;;-146.40;100.00
13033;BME280;6583;42.632;23.298;2023-02-28T08:08:05;71402.56;;;-146.40;100.00
13033;BME280;6583;42.632;23.298;2023-02-28T08:10:32;71398.50;;;-146.40;100.00
13033;BME280;6583;42.632;23.298;2023-02-28T08:12:59;71398.50;;;-146.40;100.00
13033;BME280;6583;42.632;23.298;2023-02-28T08:15:25;71380.31;;;-146.40;100.00
13033;BME280;6583;42.632;23.298;2023-02-28T08:17:54;71390.41;;;-146.40;100.00
13033;BME280;6583;42.632;23.298;2023-02-28T08:20:21;71392.44;;;-146.40;100.00
13033;BME280;6583;42.632;23.298;2023-02-28T08:22:48;71382.31;;;-146.40;100.00
13033;BME280;6583;42.632;23.298;2023-02-28T08:25:15;71372.22;;;-146.40;100.00
13033;BME280;6583;42.632;23.298;2023-02-28T08:27:42;71360.06;;;-146.40;100.00
13033;BME280;6583;42.632;23.298;2023-02-28T08:30:10;71347.91;;;-146.40;100.00
13033;BME280;6583;42.632;23.298;2023-02-28T08:32:37;71333.75;;;-146.40;100.00
13033;BME280;6583;42.632;23.298;2023-02-28T08:35:06;71351.97;;;-146.40;100.00
13033;BME280;6583;42.632;23.298;2023-02-28T08:37:34;71370.19;;;-146.40;100.00
13033;BME280;6583;42.632;23.298;2023-02-28T08:40:01;71368.16;;;-146.40;100.00
13033;BME280;6583;42.632;23.298;2023-02-28T08:42:29;71354.00;;;-146.40;100.00
13033;BME280;6583;42.632;23.298;2023-02-28T08:44:56;71354.00;;;-146.40;100.00
13033;BME280;6583;42.632;23.298;2023-02-28T08:47:22;71356.00;;;-146.40;100.00
13033;BME280;6583;42.632;23.298;2023-02-28T08:49:49;71347.91;;;-146.40;100.00
13033;BME280;6583;42.632;23.298;2023-02-28T08:52:17;71347.91;;;-146.40;100.00
13033;BME280;6583;42.632;23.298;2023-02-28T08:54:44;71339.81;;;-146.40;100.00
13033;BME280;6583;42.632;23.298;2023-02-28T08:57:10;71327.69;;;-146.40;100.00
13033;BME280;6583;42.632;23.298;2023-02-28T08:59:37;71323.63;;;-146.40;100.00
13033;BME280;6583;42.632;23.298;2023-02-28T09:02:04;71331.72;;;-146.40;100.00
13033;BME280;6583;42.632;23.298;2023-02-28T09:04:31;71327.69;;;-146.40;100.00
13033;BME280;6583;42.632;23.298;2023-02-28T09:06:57;71325.66;;;-146.40;100.00
13033;BME280;6583;42.632;23.298;2023-02-28T09:09:25;71317.56;;;-146.40;99.98
13033;BME280;6583;42.632;23.298;2023-02-28T09:11:52;71321.63;;;-146.40;100.00
13033;BME280;6583;42.632;23.298;2023-02-28T09:14:21;71321.63;;;-146.40;100.00
13033;BME280;6583;42.632;23.298;2023-02-28T09:16:48;71311.50;;;-146.40;100.00
13033;BME280;6583;42.632;23.298;2023-02-28T09:19:14;71307.44;;;-146.40;100.00
13033;BME280;6583;42.632;23.298;2023-02-28T09:21:41;71319.59;;;-146.40;100.00
13033;BME280;6583;42.632;23.298;2023-02-28T09:24:08;71311.50;;;-146.40;100.00
13033;BME280;6583;42.632;23.298;2023-02-28T09:26:38;71317.56;;;-146.40;100.00
13033;BME280;6583;42.632;23.298;2023-02-28T09:29:04;71319.59;;;-146.40;100.00
13033;BME280;6583;42.632;23.298;2023-02-28T09:31:32;71315.53;;;-146.40;100.00
13033;BME280;6583;42.632;23.298;2023-02-28T09:33:58;71309.47;;;-146.40;100.00
13033;BME280;6583;42.632;23.298;2023-02-28T09:36:26;71313.53;;;-146.40;100.00
13033;BME280;6583;42.632;23.298;2023-02-28T09:38:55;71303.41;;;-146.40;100.00
13033;BME280;6583;42.632;23.298;2023-02-28T09:41:23;71295.31;;;-146.40;100.00
13033;BME280;6583;42.632;23.298;2023-02-28T09:43:55;71279.13;;;-146.40;100.00
13033;BME280;6583;42.632;23.298;2023-02-28T09:46:29;71260.91;;;-146.40;99.15
13033;BME280;6583;42.632;23.298;2023-02-28T09:48:59;71252.81;;;-146.40;97.80
13033;BME280;6583;42.632;23.298;2023-02-28T09:51:34;71246.75;;;-146.40;97.66
13033;BME280;6583;42.632;23.298;2023-02-28T09:54:04;71240.66;;;-146.40;98.86
13033;BME280;6583;42.632;23.298;2023-02-28T09:56:35;71234.59;;;-146.40;99.19
13033;BME280;6583;42.632;23.298;2023-02-28T09:59:11;71222.44;;;-146.40;98.85
13033;BME280;6583;42.632;23.298;2023-02-28T10:01:45;71218.41;;;-146.40;98.74
13033;BME280;6583;42.632;23.298;2023-02-28T10:04:39;71202.22;;;-146.40;99.10
13033;BME280;6583;42.632;23.298;2023-02-28T10:07:16;71198.16;;;-146.40;98.92
13033;BME280;6583;42.632;23.298;2023-02-28T10:09:47;71181.97;;;-146.40;98.43
13033;BME280;6583;42.632;23.298;2023-02-28T10:12:18;71175.91;;;-146.40;97.75
13033;BME280;6583;42.632;23.298;2023-02-28T10:14:50;71177.94;;;-146.40;98.33
13033;BME280;6583;42.632;23.298;2023-02-28T10:17:20;71179.97;;;-146.40;97.98
13033;BME280;6583;42.632;23.298;2023-02-28T10:19:56;71165.78;;;-146.40;97.16
13033;BME280;6583;42.632;23.298;2023-02-28T10:22:28;71169.84;;;-146.40;96.29
13033;BME280;6583;42.632;23.298;2023-02-28T10:24:58;71190.06;;;-146.40;95.82
13033;BME280;6583;42.632;23.298;2023-02-28T10:27:30;71177.94;;;-146.40;96.17
13033;BME280;6583;42.632;23.298;2023-02-28T10:30:01;71173.88;;;-146.40;94.25
13033;BME280;6583;42.632;23.298;2023-02-28T10:32:30;71198.16;;;-146.40;92.54
13033;BME280;6583;42.632;23.298;2023-02-28T10:35:00;71184.00;;;-146.40;92.62
13033;BME280;6583;42.632;23.298;2023-02-28T10:37:27;71181.97;;;-146.40;92.75
13033;BME280;6583;42.632;23.298;2023-02-28T10:39:54;71161.75;;;-146.40;93.22
13033;BME280;6583;42.632;23.298;2023-02-28T10:42:24;71141.50;;;-146.40;92.55
13033;BME280;6583;42.632;23.298;2023-02-28T10:45:12;71119.25;;;-146.40;93.27
13033;BME280;6583;42.632;23.298;2023-02-28T10:47:49;71115.19;;;-146.40;90.91
13033;BME280;6583;42.632;23.298;2023-02-28T10:50:37;71092.94;;;-146.40;89.69
13033;BME280;6583;42.632;23.298;2023-02-28T10:53:23;71084.84;;;-146.40;89.60
13033;BME280;6583;42.632;23.298;2023-02-28T10:56:00;71082.81;;;-146.40;88.97
13033;BME280;6583;42.632;23.298;2023-02-28T10:58:28;71066.63;;;-146.40;89.02
13033;BME280;6583;42.632;23.298;2023-02-28T11:00:58;71072.72;;;-146.40;88.39
13033;BME280;6583;42.632;23.298;2023-02-28T11:03:30;71064.63;;;-146.40;88.03
13033;BME280;6583;42.632;23.298;2023-02-28T11:05:58;71054.50;;;-146.40;88.39
13033;BME280;6583;42.632;23.298;2023-02-28T11:08:25;71056.53;;;-146.40;87.43
13033;BME280;6583;42.632;23.298;2023-02-28T11:10:55;71052.47;;;-146.40;88.07
13033;BME280;6583;42.632;23.298;2023-02-28T11:13:26;71042.34;;;-146.40;87.52
13033;BME280;6583;42.632;23.298;2023-02-28T11:15:57;71036.28;;;-146.40;85.17
13033;BME280;6583;42.632;23.298;2023-02-28T11:18:28;71036.28;;;-146.40;85.22
13033;BME280;6583;42.632;23.298;2023-02-28T11:20:58;71036.28;;;-146.40;85.04
13033;BME280;6583;42.632;23.298;2023-02-28T11:23:27;71040.34;;;-146.40;84.76
13033;BME280;6583;42.632;23.298;2023-02-28T11:25:59;71032.25;;;-146.40;84.91
13033;BME280;6583;42.632;23.298;2023-02-28T11:28:29;71020.09;;;-146.40;86.18
13033;BME280;6583;42.632;23.298;2023-02-28T11:31:03;71016.06;;;-146.40;84.75
13033;BME280;6583;42.632;23.298;2023-02-28T11:33:32;71028.19;;;-146.40;85.11
13033;BME280;6583;42.632;23.298;2023-02-28T11:36:03;71032.25;;;-146.40;84.87
13033;BME280;6583;42.632;23.298;2023-02-28T11:38:37;71048.44;;;-146.40;85.40
13033;BME280;6583;42.632;23.298;2023-02-28T11:44:18;71044.38;;;-146.40;85.85
13033;BME280;6583;42.632;23.298;2023-02-28T11:46:52;71042.34;;;-146.40;86.18
13033;BME280;6583;42.632;23.298;2023-02-28T11:49:30;71034.25;;;-146.40;86.38
13033;BME280;6583;42.632;23.298;2023-02-28T11:52:02;71030.22;;;-146.40;85.41
13033;BME280;6583;42.632;23.298;2023-02-28T11:54:47;71032.25;;;-146.40;84.67
13033;BME280;6583;42.632;23.298;2023-02-28T11:57:30;71040.34;;;-146.40;85.10
13033;BME280;6583;42.632;23.298;2023-02-28T12:00:05;71050.44;;;-146.40;85.22
13033;BME280;6583;42.632;23.298;2023-02-28T12:02:49;71048.44;;;-146.40;85.83
13033;BME280;6583;42.632;23.298;2023-02-28T12:05:24;71036.28;;;-146.40;85.38
13033;BME280;6583;42.632;23.298;2023-02-28T12:08:03;71022.13;;;-146.40;85.47
13033;BME280;6583;42.632;23.298;2023-02-28T12:10:37;71028.19;;;-146.40;84.68
13033;BME280;6583;42.632;23.298;2023-02-28T12:13:17;71032.25;;;-146.40;83.77
13033;BME280;6583;42.632;23.298;2023-02-28T12:16:18;71022.13;;;-146.40;83.38
13033;BME280;6583;42.632;23.298;2023-02-28T12:19:06;71028.19;;;-146.40;83.88
13033;BME280;6583;42.632;23.298;2023-02-28T12:21:45;71032.25;;;-146.40;84.04
13033;BME280;6583;42.632;23.298;2023-02-28T12:24:27;71022.13;;;-146.40;85.07
13033;BME280;6583;42.632;23.298;2023-02-28T12:27:00;71024.16;;;-146.40;85.46
13033;BME280;6583;42.632;23.298;2023-02-28T12:29:30;71020.09;;;-146.40;85.58
13033;BME280;6583;42.632;23.298;2023-02-28T12:32:01;71016.06;;;-146.40;85.20
13033;BME280;6583;42.632;23.298;2023-02-28T12:34:36;71014.03;;;-146.40;84.46
13033;BME280;6583;42.632;23.298;2023-02-28T12:37:07;71026.16;;;-146.40;83.89
13033;BME280;6583;42.632;23.298;2023-02-28T12:39:40;71032.25;;;-146.40;84.20
13033;BME280;6583;42.632;23.298;2023-02-28T12:42:13;71036.28;;;-146.40;84.66
13033;BME280;6583;42.632;23.298;2023-02-28T12:44:45;71028.19;;;-146.40;84.91
13033;BME280;6583;42.632;23.298;2023-02-28T12:47:14;71040.34;;;-146.40;84.97
13033;BME280;6583;42.632;23.298;2023-02-28T12:49:47;71030.22;;;-146.40;84.99
13033;BME280;6583;42.632;23.298;2023-02-28T12:52:17;71024.16;;;-146.40;84.24
13033;BME280;6583;42.632;23.298;2023-02-28T12:54:51;71009.97;;;-146.40;84.39
13033;BME280;6583;42.632;23.298;2023-02-28T12:57:27;71001.88;;;-146.40;85.25
13033;BME280;6583;42.632;23.298;2023-02-28T13:00:02;71034.25;;;-146.40;84.25
13033;BME280;6583;42.632;23.298;2023-02-28T13:02:50;71024.16;;;-146.40;85.92
13033;BME280;6583;42.632;23.298;2023-02-28T13:05:32;71028.19;;;-146.40;84.66
13033;BME280;6583;42.632;23.298;2023-02-28T13:11:24;71007.97;;;-146.40;84.98
13033;BME280;6583;42.632;23.298;2023-02-28T13:14:01;71022.13;;;-146.40;84.22
13033;BME280;6583;42.632;23.298;2023-02-28T13:16:28;71026.16;;;-146.40;83.91
13033;BME280;6583;42.632;23.298;2023-02-28T13:19:17;71026.16;;;-146.40;84.71
13033;BME280;6583;42.632;23.298;2023-02-28T13:21:47;71036.28;;;-146.40;84.53
13033;BME280;6583;42.632;23.298;2023-02-28T13:24:48;71036.28;;;-146.40;84.72
13033;BME280;6583;42.632;23.298;2023-02-28T13:27:33;71044.38;;;-146.40;84.52
13033;BME280;6583;42.632;23.298;2023-02-28T13:30:02;71042.34;;;-146.40;85.10
13033;BME280;6583;42.632;23.298;2023-02-28T13:33:22;71034.25;;;-146.40;85.56
13033;BME280;6583;42.632;23.298;2023-02-28T13:36:06;71036.28;;;-146.40;84.46
13033;BME280;6583;42.632;23.298;2023-02-28T13:38:41;71032.25;;;-146.40;84.60
13033;BME280;6583;42.632;23.298;2023-02-28T13:44:14;71026.16;;;-146.40;84.26
13033;BME280;6583;42.632;23.298;2023-02-28T13:49:46;71030.22;;;-146.40;84.04
13033;BME280;6583;42.632;23.298;2023-02-28T13:52:17;71032.25;;;-146.40;83.85
13033;BME280;6583;42.632;23.298;2023-02-28T13:54:56;71034.25;;;-146.40;83.95
13033;BME280;6583;42.632;23.298;2023-02-28T13:57:38;71028.19;;;-146.40;84.18
13033;BME280;6583;42.632;23.298;2023-02-28T14:00:20;71024.16;;;-146.40;84.30
13033;BME280;6583;42.632;23.298;2023-02-28T14:03:05;71028.19;;;-146.40;82.78
13033;BME280;6583;42.632;23.298;2023-02-28T14:05:36;71024.16;;;-146.40;82.96
13033;BME280;6583;42.632;23.298;2023-02-28T14:08:06;71038.31;;;-146.40;83.87
13033;BME280;6583;42.632;23.298;2023-02-28T14:10:42;71032.25;;;-146.40;84.32
13033;BME280;6583;42.632;23.298;2023-02-28T14:13:37;71018.06;;;-146.40;83.92
13033;BME280;6583;42.632;23.298;2023-02-28T14:16:10;71036.28;;;-146.40;84.01
13033;BME280;6583;42.632;23.298;2023-02-28T14:18:40;71044.38;;;-146.40;83.84
13033;BME280;6583;42.632;23.298;2023-02-28T14:21:13;71024.16;;;-146.40;84.63
13033;BME280;6583;42.632;23.298;2023-02-28T14:23:55;71024.16;;;-146.40;83.58
13033;BME280;6583;42.632;23.298;2023-02-28T14:26:36;71028.19;;;-146.40;83.47
13033;BME280;6583;42.632;23.298;2023-02-28T14:29:21;71032.25;;;-146.40;83.47
13033;BME280;6583;42.632;23.298;2023-02-28T14:31:57;71026.16;;;-146.40;83.85
13033;BME280;6583;42.632;23.298;2023-02-28T14:34:36;71018.06;;;-146.40;83.34
13033;BME280;6583;42.632;23.298;2023-02-28T14:37:05;71020.09;;;-146.40;82.55
13033;BME280;6583;42.632;23.298;2023-02-28T14:39:33;71020.09;;;-146.40;80.85
13033;BME280;6583;42.632;23.298;2023-02-28T14:42:02;71040.34;;;-146.40;80.59
13033;BME280;6583;42.632;23.298;2023-02-28T14:44:30;71040.34;;;-146.40;79.42
13033;BME280;6583;42.632;23.298;2023-02-28T14:46:59;71040.34;;;-146.40;78.85
13033;BME280;6583;42.632;23.298;2023-02-28T14:49:31;71036.28;;;-146.40;79.40
13033;BME280;6583;42.632;23.298;2023-02-28T14:52:06;71024.16;;;-146.40;78.62
13033;BME280;6583;42.632;23.298;2023-02-28T14:54:35;71016.06;;;-146.40;77.87
13033;BME280;6583;42.632;23.298;2023-02-28T14:57:03;71012.00;;;-146.40;77.53
13033;BME280;6583;42.632;23.298;2023-02-28T14:59:32;71016.06;;;-146.40;76.56
13033;BME280;6583;42.632;23.298;2023-02-28T15:02:20;71016.06;;;-146.40;76.51
13033;BME280;6583;42.632;23.298;2023-02-28T15:04:55;71016.06;;;-146.40;76.84
13033;BME280;6583;42.632;23.298;2023-02-28T15:07:23;71014.03;;;-146.40;77.31
13033;BME280;6583;42.632;23.298;2023-02-28T15:10:17;71009.97;;;-146.40;76.90
13033;BME280;6583;42.632;23.298;2023-02-28T15:12:49;71012.00;;;-146.40;77.27
13033;BME280;6583;42.632;23.298;2023-02-28T15:15:18;71007.97;;;-146.40;77.55
13033;BME280;6583;42.632;23.298;2023-02-28T15:17:49;71018.06;;;-146.40;77.48
13033;BME280;6583;42.632;23.298;2023-02-28T15:20:18;71001.88;;;-146.40;76.81
13033;BME280;6583;42.632;23.298;2023-02-28T15:22:47;71007.97;;;-146.40;77.56
13033;BME280;6583;42.632;23.298;2023-02-28T15:25:19;70997.84;;;-146.40;77.50
13033;BME280;6583;42.632;23.298;2023-02-28T15:27:48;71016.06;;;-146.40;77.49
13033;BME280;6583;42.632;23.298;2023-02-28T15:30:17;71026.16;;;-146.40;77.58
13033;BME280;6583;42.632;23.298;2023-02-28T15:33:02;71020.09;;;-146.40;78.33
13033;BME280;6583;42.632;23.298;2023-02-28T15:35:31;71020.09;;;-146.40;78.69
13033;BME280;6583;42.632;23.298;2023-02-28T15:38:03;71028.19;;;-146.40;79.26
13033;BME280;6583;42.632;23.298;2023-02-28T15:40:32;71040.34;;;-146.40;78.93
13033;BME280;6583;42.632;23.298;2023-02-28T15:43:06;71036.28;;;-146.40;79.37
13033;BME280;6583;42.632;23.298;2023-02-28T15:45:38;71048.44;;;-146.40;78.27
13033;BME280;6583;42.632;23.298;2023-02-28T15:48:16;71062.59;;;-146.40;78.63
13033;BME280;6583;42.632;23.298;2023-02-28T15:50:44;71040.34;;;-146.40;79.17
13033;BME280;6583;42.632;23.298;2023-02-28T15:53:17;71048.44;;;-146.40;78.52
13033;BME280;6583;42.632;23.298;2023-02-28T15:55:52;71040.34;;;-146.40;78.69
13033;BME280;6583;42.632;23.298;2023-02-28T15:58:20;71072.72;;;-146.40;82.56
13033;BME280;6583;42.632;23.298;2023-02-28T16:01:00;71107.13;;;-146.40;86.20
13033;BME280;6583;42.632;23.298;2023-02-28T16:03:38;71129.38;;;-146.40;88.06
13033;BME280;6583;42.632;23.298;2023-02-28T16:06:20;71149.59;;;-146.40;89.99
13033;BME280;6583;42.632;23.298;2023-02-28T16:08:51;71165.78;;;-146.40;90.82
13033;BME280;6583;42.632;23.298;2023-02-28T16:11:19;71179.97;;;-146.40;91.67
13033;BME280;6583;42.632;23.298;2023-02-28T16:13:47;71198.16;;;-146.40;92.05
13033;BME280;6583;42.632;23.298;2023-02-28T16:16:16;71190.06;;;-146.40;92.63
13033;BME280;6583;42.632;23.298;2023-02-28T16:18:43;71224.47;;;-146.40;93.42
13033;BME280;6583;42.632;23.298;2023-02-28T16:21:09;71230.56;;;-146.40;93.59
13033;BME280;6583;42.632;23.298;2023-02-28T16:23:36;71230.56;;;-146.40;93.94
13033;BME280;6583;42.632;23.298;2023-02-28T16:26:05;71236.63;;;-146.40;93.61
13033;BME280;6583;42.632;23.298;2023-02-28T16:28:34;71252.81;;;-146.40;94.07
13033;BME280;6583;42.632;23.298;2023-02-28T16:31:05;71258.88;;;-146.40;94.43
13033;BME280;6583;42.632;23.298;2023-02-28T16:33:33;71258.88;;;-146.40;94.34
13033;BME280;6583;42.632;23.298;2023-02-28T16:36:00;71256.84;;;-146.40;94.52
13033;BME280;6583;42.632;23.298;2023-02-28T16:38:26;71269.00;;;-146.40;94.11
13033;BME280;6583;42.632;23.298;2023-02-28T16:40:55;71285.19;;;-146.40;94.33
13033;BME280;6583;42.632;23.298;2023-02-28T16:43:26;71281.13;;;-146.40;94.29
13033;BME280;6583;42.632;23.298;2023-02-28T16:45:54;71271.03;;;-146.40;94.31
13033;BME280;6583;42.632;23.298;2023-02-28T16:48:22;71305.41;;;-146.40;94.45
13033;BME280;6583;42.632;23.298;2023-02-28T16:50:48;71323.63;;;-146.40;95.50
13033;BME280;6583;42.632;23.298;2023-02-28T16:53:15;71329.72;;;-146.40;96.06
13033;BME280;6583;42.632;23.298;2023-02-28T16:55:42;71329.72;;;-146.40;96.44
13033;BME280;6583;42.632;23.298;2023-02-28T16:58:13;71343.88;;;-146.40;96.35
13033;BME280;6583;42.632;23.298;2023-02-28T17:00:41;71343.88;;;-146.40;97.10
13033;BME280;6583;42.632;23.298;2023-02-28T17:03:19;71382.31;;;-146.40;97.87
13033;BME280;6583;42.632;23.298;2023-02-28T17:05:47;71392.44;;;-146.40;99.01
13033;BME280;6583;42.632;23.298;2023-02-28T17:08:13;71400.53;;;-146.40;99.60
13033;BME280;6583;42.632;23.298;2023-02-28T17:10:40;71400.53;;;-146.40;100.00
13033;BME280;6583;42.632;23.298;2023-02-28T17:13:10;71418.75;;;-146.40;100.00
13033;BME280;6583;42.632;23.298;2023-02-28T17:15:37;71408.63;;;-146.40;100.00
13033;BME280;6583;42.632;23.298;2023-02-28T17:18:05;71408.63;;;-146.40;100.00
13033;BME280;6583;42.632;23.298;2023-02-28T17:20:34;71394.47;;;-146.40;100.00
13033;BME280;6583;42.632;23.298;2023-02-28T17:23:00;71392.44;;;-146.40;100.00
13033;BME280;6583;42.632;23.298;2023-02-28T17:25:27;71386.38;;;-146.40;99.72
13033;BME280;6583;42.632;23.298;2023-02-28T17:27:54;71388.41;;;-146.40;99.50
13033;BME280;6583;42.632;23.298;2023-02-28T17:30:23;71388.41;;;-146.40;99.28
13033;BME280;6583;42.632;23.298;2023-02-28T17:32:50;71412.69;;;-146.40;99.70
13033;BME280;6583;42.632;23.298;2023-02-28T17:35:18;71416.72;;;-146.40;100.00
13033;BME280;6583;42.632;23.298;2023-02-28T17:37:45;71420.78;;;-146.40;99.93
13033;BME280;6583;42.632;23.298;2023-02-28T17:40:14;71422.81;;;-146.40;100.00
13033;BME280;6583;42.632;23.298;2023-02-28T17:42:41;71436.97;;;-146.40;100.00
13033;BME280;6583;42.632;23.298;2023-02-28T17:45:08;71443.03;;;-146.40;100.00
13033;BME280;6583;42.632;23.298;2023-02-28T17:47:36;71436.97;;;-146.40;100.00
13033;BME280;6583;42.632;23.298;2023-02-28T17:50:03;71439.00;;;-146.40;100.00
13033;BME280;6583;42.632;23.298;2023-02-28T17:52:32;71432.91;;;-146.40;100.00
13033;BME280;6583;42.632;23.298;2023-02-28T17:55:02;71420.78;;;-146.40;100.00
13033;BME280;6583;42.632;23.298;2023-02-28T17:57:29;71428.88;;;-146.40;100.00
13033;BME280;6583;42.632;23.298;2023-02-28T17:59:56;71436.97;;;-146.40;100.00
13033;BME280;6583;42.632;23.298;2023-02-28T18:02:22;71445.06;;;-146.40;100.00
13033;BME280;6583;42.632;23.298;2023-02-28T18:04:49;71481.50;;;-146.40;100.00
13033;BME280;6583;42.632;23.298;2023-02-28T18:07:16;71463.28;;;-146.40;100.00
13033;BME280;6583;42.632;23.298;2023-02-28T18:09:46;71465.28;;;-146.40;100.00
13033;BME280;6583;42.632;23.298;2023-02-28T18:12:12;71483.50;;;-146.40;100.00
13033;BME280;6583;42.632;23.298;2023-02-28T18:14:39;71477.44;;;-146.40;100.00
13033;BME280;6583;42.632;23.298;2023-02-28T18:17:06;71479.47;;;-146.40;100.00
13033;BME280;6583;42.632;23.298;2023-02-28T18:19:32;71491.59;;;-146.40;100.00
13033;BME280;6583;42.632;23.298;2023-02-28T18:21:59;71497.69;;;-146.40;100.00
13033;BME280;6583;42.632;23.298;2023-02-28T18:24:26;71489.59;;;-146.40;100.00
13033;BME280;6583;42.632;23.298;2023-02-28T18:26:54;71493.63;;;-146.40;100.00
13033;BME280;6583;42.632;23.298;2023-02-28T18:29:21;71497.69;;;-146.40;100.00
13033;BME280;6583;42.632;23.298;2023-02-28T18:31:49;71501.72;;;-146.40;100.00
13033;BME280;6583;42.632;23.298;2023-02-28T18:34:16;71499.69;;;-146.40;100.00
13033;BME280;6583;42.632;23.298;2023-02-28T18:36:42;71497.69;;;-146.40;100.00
13033;BME280;6583;42.632;23.298;2023-02-28T18:39:11;71495.66;;;-146.40;100.00
13033;BME280;6583;42.632;23.298;2023-02-28T18:41:38;71487.56;;;-146.40;100.00
13033;BME280;6583;42.632;23.298;2023-02-28T18:44:07;71483.50;;;-146.40;100.00
13033;BME280;6583;42.632;23.298;2023-02-28T18:46:33;71481.50;;;-146.40;100.00
13033;BME280;6583;42.632;23.298;2023-02-28T18:49:00;71503.75;;;-146.40;100.00
13033;BME280;6583;42.632;23.298;2023-02-28T18:51:28;71497.69;;;-146.40;100.00
13033;BME280;6583;42.632;23.298;2023-02-28T18:53:55;71489.59;;;-146.40;100.00
13033;BME280;6583;42.632;23.298;2023-02-28T18:56:23;71493.63;;;-146.40;100.00
13033;BME280;6583;42.632;23.298;2023-02-28T18:58:51;71487.56;;;-146.40;100.00
13033;BME280;6583;42.632;23.298;2023-02-28T19:01:21;71501.72;;;-146.40;100.00
13033;BME280;6583;42.632;23.298;2023-02-28T19:03:49;71509.81;;;-146.40;100.00
13033;BME280;6583;42.632;23.298;2023-02-28T19:06:16;71499.69;;;-146.40;100.00